Time;durP1;ratioP1;P1;durP2;ratioP2;P2;SDS_P1;SDS_P2;PMS_P1;PMS_P2;Temp;Humidity;BMP_temperature;BMP_pressure;BME280_temperature;BME280_humidity;BME280_pressure;Samples;Min_cycle;Max_cycle;Signal;HPM_P1;HPM_P2
2022/06/20 00:01:22;;;;;;;;;;;;;;;19.92;53.07;99744.00;3127957;28;19924;-68
2022/06/20 00:02:58;;;;;;;;;;;;;;;19.90;53.47;99738.00;3130173;28;19936;-69
2022/06/20 00:04:29;;;;;;;;;;;;;;;19.86;53.31;99737.41;3129415;28;19925;-68
2022/06/20 00:06:01;;;;;;;;;;;;;;;19.82;53.65;99743.94;3129865;28;19925;-68
2022/06/20 00:07:32;;;;;;;;;;;;;;;19.80;53.50;99731.81;3134800;28;19931;-68
2022/06/20 00:09:04;;;;;;;;;;;;;;;19.79;53.78;99733.63;3129374;28;19929;-68
2022/06/20 00:10:35;;;;;;;;;;;;;;;19.80;53.39;99732.66;3128939;28;20374;-68
2022/06/20 00:12:07;;;;;;;;;;;;;;;19.79;53.47;99731.00;3129355;28;20015;-67
2022/06/20 00:13:41;;;;;;;;;;;;;;;19.80;53.72;99727.38;3129107;28;20062;-68
2022/06/20 00:15:21;;;;;;;;;;;;;;;19.77;53.83;99733.75;3128865;28;19929;-67
2022/06/20 00:16:54;;;;;;;;;;;;;;;19.78;53.56;99740.69;3128990;28;20397;-68
2022/06/20 00:18:25;;;;;;;;;;;;;;;19.75;54.01;99735.69;3128461;28;20115;-68
2022/06/20 00:19:57;;;;;;;;;;;;;;;19.76;53.81;99733.91;3126317;28;19928;-68
2022/06/20 00:21:29;;;;;;;;;;;;;;;19.75;54.34;99740.97;3129154;28;19924;-68
2022/06/20 00:23:00;;;;;;;;;;;;;;;19.68;54.21;99729.25;3129106;28;19967;-68
2022/06/20 00:24:32;;;;;;;;;;;;;;;19.54;54.73;99718.97;3129272;28;19982;-68
2022/06/20 00:26:03;;;;;;;;;;;;;;;19.61;54.72;99727.19;3129115;28;19928;-68
2022/06/20 00:27:35;;;;;;;;;;;;;;;19.57;55.07;99733.72;3129026;28;19978;-68
2022/06/20 00:29:08;;;;;;;;;;;;;;;19.54;55.05;99724.25;3128560;28;20402;-68
2022/06/20 00:30:40;;;;;;;;;;;;;;;19.54;54.63;99726.88;3129112;28;19924;-68
2022/06/20 00:32:12;;;;;;;;;;;;;;;19.52;54.95;99726.16;3128658;28;19974;-68
2022/06/20 00:33:44;;;;;;;;;;;;;;;19.45;55.74;99727.66;3129578;28;19974;-68
2022/06/20 00:35:15;;;;;;;;;;;;;;;19.42;55.50;99727.91;3128988;28;19931;-69
2022/06/20 00:36:47;;;;;;;;;;;;;;;19.42;55.43;99723.47;3129051;28;20555;-69
2022/06/20 00:38:19;;;;;;;;;;;;;;;19.41;55.36;99721.81;3124410;28;19932;-69
2022/06/20 00:39:50;;;;;;;;;;;;;;;19.40;55.90;99719.28;3128853;28;19948;-69
2022/06/20 00:41:24;;;;;;;;;;;;;;;19.32;56.65;99722.56;3128482;28;19939;-69
2022/06/20 00:42:54;;;;;;;;;;;;;;;19.28;56.46;99726.41;3128782;28;19928;-68
2022/06/20 00:44:29;;;;;;;;;;;;;;;19.26;56.69;99723.06;3129024;28;19930;-68
2022/06/20 00:46:04;;;;;;;;;;;;;;;19.19;57.28;99717.44;3124608;28;20360;-68
2022/06/20 00:47:37;;;;;;;;;;;;;;;19.07;57.87;99724.56;3130347;28;20490;-68
2022/06/20 00:49:11;;;;;;;;;;;;;;;18.99;58.25;99721.75;3124753;28;19925;-69
2022/06/20 00:50:45;;;;;;;;;;;;;;;18.92;58.79;99725.00;3124642;28;19925;-68
2022/06/20 00:52:20;;;;;;;;;;;;;;;18.86;58.65;99729.78;3124331;28;19952;-69
2022/06/20 00:53:55;;;;;;;;;;;;;;;18.84;59.22;99721.19;3124655;28;19935;-68
2022/06/20 00:55:29;;;;;;;;;;;;;;;18.84;58.53;99720.31;3125336;28;19960;-68
2022/06/20 00:57:04;;;;;;;;;;;;;;;18.87;58.64;99725.34;3124491;28;20377;-68
2022/06/20 00:58:38;;;;;;;;;;;;;;;18.90;58.29;99726.91;3120056;28;19929;-68
2022/06/20 01:00:12;;;;;;;;;;;;;;;18.91;58.74;99720.69;3119936;28;20004;-68
2022/06/20 01:01:44;;;;;;;;;;;;;;;18.84;59.40;99713.25;3120452;28;20070;-68
2022/06/20 01:03:18;;;;;;;;;;;;;;;18.84;59.01;99718.53;3124050;28;19994;-69
2022/06/20 01:04:53;;;;;;;;;;;;;;;18.77;59.91;99716.50;3124656;28;19925;-68
2022/06/20 01:06:27;;;;;;;;;;;;;;;18.70;59.96;99713.50;3124224;28;19935;-68
2022/06/20 01:08:01;;;;;;;;;;;;;;;18.74;59.70;99714.13;3125156;28;20367;-68
2022/06/20 01:09:36;;;;;;;;;;;;;;;18.76;59.39;99714.84;3124765;28;19940;-68
2022/06/20 01:11:12;;;;;;;;;;;;;;;18.73;59.68;99710.66;3126309;28;19978;-68
2022/06/20 01:12:47;;;;;;;;;;;;;;;18.73;59.63;99710.66;3128492;28;20076;-69
2022/06/20 01:14:21;;;;;;;;;;;;;;;18.74;59.42;99712.31;3128450;28;19931;-68
2022/06/20 01:15:54;;;;;;;;;;;;;;;18.73;59.17;99710.66;3128685;28;19925;-68
2022/06/20 01:17:31;;;;;;;;;;;;;;;18.75;59.46;99711.38;3128638;28;19932;-69
2022/06/20 01:19:06;;;;;;;;;;;;;;;18.75;59.63;99708.72;3128612;28;20389;-69
2022/06/20 01:20:38;;;;;;;;;;;;;;;18.73;59.65;99708.00;3129002;28;19925;-68
2022/06/20 01:22:18;;;;;;;;;;;;;;;18.72;59.61;99706.28;3128567;28;19925;-68
2022/06/20 01:23:53;;;;;;;;;;;;;;;18.63;60.80;99709.66;3122865;28;19924;-68
2022/06/20 01:25:32;;;;;;;;;;;;;;;18.58;60.54;99709.22;3121973;28;20480;-69
2022/06/20 01:27:15;;;;;;;;;;;;;;;18.59;60.33;99705.59;3122248;28;20154;-67
2022/06/20 01:28:48;;;;;;;;;;;;;;;18.61;60.20;99706.34;3122900;28;19925;-68
2022/06/20 01:30:20;;;;;;;;;;;;;;;18.56;61.25;99709.31;3122114;28;19931;-68
2022/06/20 01:31:54;;;;;;;;;;;;;;;18.50;61.74;99703.72;3128524;28;19924;-68
2022/06/20 01:33:26;;;;;;;;;;;;;;;18.44;61.42;99702.41;3128575;28;19924;-68
2022/06/20 01:34:57;;;;;;;;;;;;;;;18.37;62.18;99698.56;3128533;28;19931;-68
2022/06/20 01:38:21;;;;;;;;;;;;;;;18.21;63.14;99695.47;3128553;28;20385;-68
2022/06/20 01:39:54;;;;;;;;;;;;;;;18.17;63.02;99695.69;3128056;28;19982;-69
2022/06/20 01:43:16;;;;;;;;;;;;;;;18.17;62.64;99705.41;3128318;28;19924;-69
2022/06/20 01:44:48;;;;;;;;;;;;;;;18.19;62.55;99699.06;3128455;28;20413;-70
2022/06/20 01:46:21;;;;;;;;;;;;;;;18.21;62.32;99696.28;3128174;28;19924;-69
2022/06/20 01:47:53;;;;;;;;;;;;;;;18.20;62.32;99702.53;3128086;28;19972;-69
2022/06/20 01:49:24;;;;;;;;;;;;;;;18.20;62.33;99702.53;3128435;28;19924;-69
2022/06/20 01:50:56;;;;;;;;;;;;;;;18.22;62.37;99705.91;3128619;28;19935;-68
2022/06/20 01:52:30;;;;;;;;;;;;;;;18.21;62.68;99698.94;3128250;28;20099;-69
2022/06/20 01:54:02;;;;;;;;;;;;;;;18.21;62.27;99698.94;3127856;28;20401;-69
2022/06/20 01:55:35;;;;;;;;;;;;;;;18.23;61.92;99698.81;3128184;28;19924;-68
2022/06/20 01:57:06;;;;;;;;;;;;;;;18.22;62.46;99695.34;3128277;28;20298;-68
2022/06/20 01:58:41;;;;;;;;;;;;;;;18.22;62.13;99698.00;3128364;28;19977;-68
2022/06/20 02:00:14;;;;;;;;;;;;;;;18.21;62.51;99695.47;3128181;28;19929;-68
2022/06/20 02:01:45;;;;;;;;;;;;;;;18.19;62.57;99696.44;3126280;28;19928;-68
2022/06/20 02:03:18;;;;;;;;;;;;;;;18.19;62.36;99696.44;3127587;28;19972;-69
2022/06/20 02:04:51;;;;;;;;;;;;;;;18.21;62.15;99690.19;3121737;28;19986;-69
2022/06/20 02:06:21;;;;;;;;;;;;;;;18.20;62.03;99689.34;3131460;28;19924;-69
2022/06/20 02:07:54;;;;;;;;;;;;;;;18.17;62.54;99682.53;3129602;28;19958;-69
2022/06/20 02:09:24;;;;;;;;;;;;;;;18.13;62.59;99693.41;3127909;28;20479;-68
2022/06/20 02:10:59;;;;;;;;;;;;;;;18.11;62.57;99685.66;3128164;28;20315;-68
2022/06/20 02:12:32;;;;;;;;;;;;;;;18.09;62.47;99679.66;3128068;28;19924;-69
2022/06/20 02:14:05;;;;;;;;;;;;;;;18.09;62.27;99686.72;3128180;28;19998;-69
2022/06/20 02:15:38;;;;;;;;;;;;;;;18.07;62.61;99678.94;3128200;28;20024;-69
2022/06/20 02:17:12;;;;;;;;;;;;;;;18.06;62.16;99682.53;3123469;28;19924;-68
2022/06/20 02:18:45;;;;;;;;;;;;;;;18.05;62.28;99674.75;3128156;28;19924;-69
2022/06/20 02:20:19;;;;;;;;;;;;;;;18.02;61.85;99690.81;3128060;28;20790;-68
2022/06/20 02:21:53;;;;;;;;;;;;;;;18.01;62.03;99689.09;3127349;28;19931;-69
2022/06/20 02:23:26;;;;;;;;;;;;;;;17.98;61.48;99689.34;3127973;28;19936;-69
2022/06/20 02:25:02;;;;;;;;;;;;;;;17.98;61.56;99689.34;3127936;28;20314;-69
2022/06/20 02:26:34;;;;;;;;;;;;;;;17.97;61.21;99688.50;3127976;28;19931;-69
2022/06/20 02:28:07;;;;;;;;;;;;;;;17.96;60.97;99690.31;3127781;28;20321;-69
2022/06/20 02:29:40;;;;;;;;;;;;;;;17.93;61.01;99682.66;3127704;28;20377;-69
2022/06/20 02:31:11;;;;;;;;;;;;;;;17.92;60.76;99693.28;3127972;28;20362;-69
2022/06/20 02:32:44;;;;;;;;;;;;;;;17.93;60.85;99687.91;3128019;28;19929;-69
2022/06/20 02:34:16;;;;;;;;;;;;;;;17.84;60.76;99680.72;3127653;28;19924;-69
2022/06/20 02:35:48;;;;;;;;;;;;;;;17.89;60.72;99693.53;3127812;28;20166;-69
2022/06/20 02:37:23;;;;;;;;;;;;;;;17.89;60.58;99690.88;3127562;28;19955;-69
2022/06/20 02:38:54;;;;;;;;;;;;;;;17.88;60.51;99679.53;3127836;28;19967;-69
2022/06/20 02:40:25;;;;;;;;;;;;;;;17.90;60.36;99679.41;3124485;28;19924;-69
2022/06/20 02:42:00;;;;;;;;;;;;;;;17.88;60.32;99671.63;3127857;28;19928;-69
2022/06/20 02:43:35;;;;;;;;;;;;;;;17.89;60.03;99678.56;3127868;28;19924;-69
2022/06/20 02:45:11;;;;;;;;;;;;;;;17.88;60.13;99671.63;3125768;28;19947;-69
2022/06/20 02:46:42;;;;;;;;;;;;;;;17.89;60.24;99672.44;3124814;28;19925;-69
2022/06/20 02:48:15;;;;;;;;;;;;;;;17.87;60.11;99671.75;3127672;28;19924;-69
2022/06/20 02:49:47;;;;;;;;;;;;;;;17.82;60.28;99674.72;3127462;28;20730;-68
2022/06/20 02:51:21;;;;;;;;;;;;;;;17.82;60.63;99676.53;3128880;28;19924;-69
2022/06/20 02:52:57;;;;;;;;;;;;;;;17.73;60.56;99681.50;3127926;28;19925;-68
2022/06/20 02:54:30;;;;;;;;;;;;;;;17.72;60.60;99676.38;3127726;28;19931;-68
2022/06/20 02:56:02;;;;;;;;;;;;;;;17.72;60.31;99673.75;3127681;28;19999;-68
2022/06/20 02:57:35;;;;;;;;;;;;;;;17.65;60.77;99678.63;3127726;28;19924;-69
2022/06/20 02:59:15;;;;;;;;;;;;;;;17.66;60.45;99682.13;3127479;28;19929;-68
2022/06/20 03:00:51;;;;;;;;;;;;;;;17.64;60.52;99678.75;3127602;28;19963;-68
2022/06/20 03:02:25;;;;;;;;;;;;;;;17.58;60.74;99680.06;3129224;28;19925;-68
2022/06/20 03:03:58;;;;;;;;;;;;;;;17.55;60.88;99684.72;3127598;28;19928;-69
2022/06/20 03:05:30;;;;;;;;;;;;;;;17.52;60.93;99680.53;3128759;28;20320;-68
2022/06/20 03:07:03;;;;;;;;;;;;;;;17.50;61.11;99685.06;3130405;28;19947;-68
2022/06/20 03:08:33;;;;;;;;;;;;;;;17.46;61.39;99681.00;3130092;28;19932;-69
2022/06/20 03:10:11;;;;;;;;;;;;;;;17.44;61.06;99675.81;3130155;28;20390;-68
2022/06/20 03:11:43;;;;;;;;;;;;;;;17.42;61.12;99683.03;3130135;28;19978;-68
2022/06/20 03:13:16;;;;;;;;;;;;;;;17.45;61.10;99681.94;3130132;28;20333;-68
2022/06/20 03:14:51;;;;;;;;;;;;;;;17.43;61.05;99686.50;3130036;28;19938;-68
2022/06/20 03:16:24;;;;;;;;;;;;;;;17.42;61.06;99683.03;3130222;28;19925;-68
2022/06/20 03:17:57;;;;;;;;;;;;;;;17.41;61.06;99683.97;3128003;28;20389;-68
2022/06/20 03:19:32;;;;;;;;;;;;;;;17.41;61.15;99678.69;3130318;28;20015;-68
2022/06/20 03:21:04;;;;;;;;;;;;;;;17.41;60.85;99681.31;3130332;28;19995;-68
2022/06/20 03:22:37;;;;;;;;;;;;;;;17.40;61.26;99679.66;3130459;28;19924;-68
2022/06/20 03:24:12;;;;;;;;;;;;;;;17.39;61.01;99677.13;3129899;28;19931;-68
2022/06/20 03:25:45;;;;;;;;;;;;;;;17.40;61.02;99687.56;3129850;28;20409;-68
2022/06/20 03:27:17;;;;;;;;;;;;;;;17.43;60.56;99683.84;3129891;28;19924;-68
2022/06/20 03:28:48;;;;;;;;;;;;;;;17.43;60.71;99689.97;3130164;28;19929;-68
2022/06/20 03:30:23;;;;;;;;;;;;;;;17.45;60.41;99684.56;3129860;28;19925;-68
2022/06/20 03:31:56;;;;;;;;;;;;;;;17.47;60.40;99677.41;3123891;28;19935;-68
2022/06/20 03:33:29;;;;;;;;;;;;;;;17.46;60.52;99676.56;3129888;28;20193;-68
2022/06/20 03:35:00;;;;;;;;;;;;;;;17.43;60.44;99673.31;3129925;28;20015;-67
2022/06/20 03:36:32;;;;;;;;;;;;;;;17.45;60.41;99674.91;3130051;28;19982;-68
2022/06/20 03:38:05;;;;;;;;;;;;;;;17.46;60.22;99676.56;3129830;28;20423;-67
2022/06/20 03:39:36;;;;;;;;;;;;;;;17.48;59.92;99679.94;3129909;28;20317;-68
2022/06/20 03:41:08;;;;;;;;;;;;;;;17.48;59.92;99674.66;3128055;28;19929;-69
2022/06/20 03:42:40;;;;;;;;;;;;;;;17.45;59.75;99677.53;3130151;28;20009;-69
2022/06/20 03:44:15;;;;;;;;;;;;;;;17.45;59.89;99674.91;3129869;28;20318;-69
2022/06/20 03:45:48;;;;;;;;;;;;;;;17.47;59.78;99672.97;3130016;28;19924;-69
2022/06/20 03:47:24;;;;;;;;;;;;;;;17.52;59.66;99675.25;3128712;28;20410;-69
2022/06/20 03:48:59;;;;;;;;;;;;;;;17.54;59.60;99672.50;3130002;28;19924;-69
2022/06/20 03:50:33;;;;;;;;;;;;;;;17.55;59.43;99674.19;3128243;28;20009;-69
2022/06/20 03:52:07;;;;;;;;;;;;;;;17.52;59.24;99670.81;3129613;28;20248;-69
2022/06/20 03:53:42;;;;;;;;;;;;;;;17.51;59.32;99682.31;3130050;28;20404;-69
2022/06/20 03:55:17;;;;;;;;;;;;;;;17.53;59.21;99682.19;3129322;28;19925;-69
2022/06/20 03:56:52;;;;;;;;;;;;;;;17.50;59.22;99675.34;3129735;28;19929;-69
2022/06/20 03:58:27;;;;;;;;;;;;;;;17.50;59.10;99672.72;3129705;28;19928;-69
2022/06/20 04:00:02;;;;;;;;;;;;;;;17.47;59.10;99672.97;3129689;28;19933;-70
2022/06/20 04:01:37;;;;;;;;;;;;;;;17.51;59.36;99663.91;3129624;28;19924;-69
2022/06/20 04:03:12;;;;;;;;;;;;;;;17.53;59.19;99663.75;3129639;28;20141;-70
2022/06/20 04:04:47;;;;;;;;;;;;;;;17.54;59.14;99654.94;3123513;28;19924;-69
2022/06/20 04:06:25;;;;;;;;;;;;;;;17.52;58.95;99664.72;3131698;28;19928;-69
2022/06/20 04:08:00;;;;;;;;;;;;;;;17.51;59.18;99669.16;3129485;28;19978;-69
2022/06/20 04:11:26;;;;;;;;;;;;;;;17.48;59.12;99669.41;3124328;28;19924;-68
2022/06/20 04:12:59;;;;;;;;;;;;;;;17.51;59.08;99676.22;3129742;28;20011;-68
2022/06/20 04:14:34;;;;;;;;;;;;;;;17.54;59.15;99673.34;3129533;28;19925;-68
2022/06/20 04:16:08;;;;;;;;;;;;;;;17.55;59.34;99674.19;3128866;28;19979;-68
2022/06/20 04:19:35;;;;;;;;;;;;;;;17.56;59.11;99663.53;3129168;28;19924;-69
2022/06/20 04:21:14;;;;;;;;;;;;;;;17.57;59.25;99664.34;3127664;28;19929;-68
2022/06/20 04:22:47;;;;;;;;;;;;;;;17.62;58.94;99667.50;3127524;28;19925;-69
2022/06/20 04:24:22;;;;;;;;;;;;;;;17.65;59.03;99669.88;3129296;28;19936;-69
2022/06/20 04:25:57;;;;;;;;;;;;;;;17.67;59.01;99674.09;3129741;28;19974;-69
2022/06/20 04:27:31;;;;;;;;;;;;;;;17.67;59.12;99675.88;3130726;28;20578;-69
2022/06/20 04:29:05;;;;;;;;;;;;;;;17.68;59.23;99672.28;3134425;28;20021;-69
2022/06/20 04:30:38;;;;;;;;;;;;;;;17.69;59.22;99669.53;3134330;28;19941;-69
2022/06/20 04:32:14;;;;;;;;;;;;;;;17.70;59.22;99667.75;3134138;28;19978;-69
2022/06/20 04:33:48;;;;;;;;;;;;;;;17.71;59.18;99672.03;3130494;28;20304;-69
2022/06/20 04:35:23;;;;;;;;;;;;;;;17.74;58.99;99658.63;3134727;28;19925;-68
2022/06/20 04:36:57;;;;;;;;;;;;;;;17.79;59.13;99663.59;3129677;28;19920;-69
2022/06/20 04:38:30;;;;;;;;;;;;;;;17.82;58.99;99666.81;3134458;28;19978;-68
2022/06/20 04:40:05;;;;;;;;;;;;;;;17.85;58.92;99666.59;3130112;28;20026;-68
2022/06/20 04:41:37;;;;;;;;;;;;;;;17.87;58.74;99666.47;3134218;28;19920;-68
2022/06/20 04:43:12;;;;;;;;;;;;;;;17.91;58.77;99660.84;3134308;28;19925;-68
2022/06/20 04:44:46;;;;;;;;;;;;;;;17.95;58.63;99667.56;3134255;28;19924;-68
2022/06/20 04:46:20;;;;;;;;;;;;;;;18.00;58.78;99669.00;3134378;28;19940;-68
2022/06/20 04:47:53;;;;;;;;;;;;;;;18.02;58.82;99667.91;3134077;28;19928;-69
2022/06/20 04:49:25;;;;;;;;;;;;;;;18.07;58.63;99664.91;3134163;28;20295;-68
2022/06/20 04:51:00;;;;;;;;;;;;;;;18.12;58.62;99660.13;3124472;28;19943;-68
2022/06/20 04:52:32;;;;;;;;;;;;;;;18.15;58.36;99663.34;3134083;28;19932;-68
2022/06/20 04:54:05;;;;;;;;;;;;;;;18.19;58.33;99658.69;3134245;28;20267;-68
2022/06/20 04:55:39;;;;;;;;;;;;;;;18.22;58.20;99657.59;3132495;28;20263;-68
2022/06/20 04:57:13;;;;;;;;;;;;;;;18.24;58.03;99661.78;3133518;28;20397;-68
2022/06/20 04:58:49;;;;;;;;;;;;;;;18.29;58.12;99662.28;3134216;28;19924;-68
2022/06/20 05:00:22;;;;;;;;;;;;;;;18.34;57.88;99656.66;3134350;28;20314;-68
2022/06/20 05:01:55;;;;;;;;;;;;;;;18.38;57.63;99650.97;3133903;28;19920;-68
2022/06/20 05:03:28;;;;;;;;;;;;;;;18.44;57.62;99656.75;3133799;28;19928;-68
2022/06/20 05:05:04;;;;;;;;;;;;;;;18.50;57.65;99650.97;3134156;28;19931;-69
2022/06/20 05:06:39;;;;;;;;;;;;;;;18.54;57.50;99655.84;3137693;28;19924;-68
2022/06/20 05:08:12;;;;;;;;;;;;;;;18.59;57.38;99650.22;3134016;28;19974;-69
2022/06/20 05:09:47;;;;;;;;;;;;;;;18.63;57.32;99649.88;3133979;28;19921;-69
2022/06/20 05:11:21;;;;;;;;;;;;;;;18.70;57.24;99647.56;3134100;28;19932;-68
2022/06/20 05:12:56;;;;;;;;;;;;;;;18.73;57.04;99647.34;3128496;28;19920;-67
2022/06/20 05:14:31;;;;;;;;;;;;;;;18.78;56.78;99646.94;3134441;28;19943;-67
2022/06/20 05:16:04;;;;;;;;;;;;;;;18.82;56.82;99643.94;3134551;28;19925;-67
2022/06/20 05:17:36;;;;;;;;;;;;;;;18.88;56.75;99644.41;3134498;28;19925;-67
2022/06/20 05:19:11;;;;;;;;;;;;;;;18.92;56.59;99645.81;3131982;28;19925;-68
2022/06/20 05:20:43;;;;;;;;;;;;;;;18.96;56.89;99647.22;3133952;28;19924;-68
2022/06/20 05:22:19;;;;;;;;;;;;;;;19.00;56.60;99646.88;3133742;28;19921;-67
2022/06/20 05:23:53;;;;;;;;;;;;;;;19.07;56.86;99641.91;3133679;28;20386;-68
2022/06/20 05:25:25;;;;;;;;;;;;;;;19.17;56.35;99648.13;3133583;28;19925;-68
2022/06/20 05:26:57;;;;;;;;;;;;;;;19.23;56.42;99650.25;3129681;28;20656;-68
2022/06/20 05:28:29;;;;;;;;;;;;;;;19.30;56.57;99655.84;3121732;28;19924;-70
2022/06/20 05:30:01;;;;;;;;;;;;;;;19.38;56.34;99657.84;3128591;28;19925;-68
2022/06/20 05:31:36;;;;;;;;;;;;;;;19.44;56.01;99652.06;3128422;28;19948;-67
2022/06/20 05:33:13;;;;;;;;;;;;;;;19.51;56.11;99654.03;3128578;28;20469;-68
2022/06/20 05:34:46;;;;;;;;;;;;;;;19.58;55.97;99650.84;3128415;28;20339;-65
2022/06/20 05:36:20;;;;;;;;;;;;;;;19.64;55.75;99653.84;3128400;28;19932;-65
2022/06/20 05:37:56;;;;;;;;;;;;;;;19.71;55.44;99654.19;3128614;28;19925;-66
2022/06/20 05:39:29;;;;;;;;;;;;;;;19.77;55.21;99643.09;3128369;28;19974;-67
2022/06/20 05:41:04;;;;;;;;;;;;;;;19.86;55.13;99644.09;3126612;28;20325;-66
2022/06/20 05:42:35;;;;;;;;;;;;;;;19.91;54.97;99645.38;3128577;28;19924;-66
2022/06/20 05:44:09;;;;;;;;;;;;;;;19.97;54.39;99649.28;3128171;28;20326;-68
2022/06/20 05:45:41;;;;;;;;;;;;;;;20.06;54.65;99642.38;3128690;28;19928;-67
2022/06/20 05:47:16;;;;;;;;;;;;;;;20.13;54.56;99644.34;3128471;28;19931;-65
2022/06/20 05:48:50;;;;;;;;;;;;;;;20.22;54.29;99647.97;3127791;28;19925;-67
2022/06/20 05:50:29;;;;;;;;;;;;;;;20.30;54.36;99645.50;3128513;28;19925;-67
2022/06/20 05:52:01;;;;;;;;;;;;;;;20.41;53.18;99650.69;3130550;28;19924;-67
2022/06/20 05:53:37;;;;;;;;;;;;;;;20.48;52.92;99645.69;3128128;28;19929;-63
2022/06/20 05:55:12;;;;;;;;;;;;;;;20.57;52.43;99639.59;3128121;28;19928;-65
2022/06/20 05:56:45;;;;;;;;;;;;;;;20.65;52.11;99645.03;3128191;28;19924;-64
2022/06/20 05:58:19;;;;;;;;;;;;;;;20.74;51.77;99645.19;3125665;28;19924;-66
2022/06/20 05:59:54;;;;;;;;;;;;;;;20.82;51.55;99632.94;3128268;28;19929;-67
2022/06/20 06:01:30;;;;;;;;;;;;;;;20.88;51.41;99639.47;3128365;28;20000;-69
2022/06/20 06:03:04;;;;;;;;;;;;;;;20.96;51.33;99629.03;3129272;28;19954;-66
2022/06/20 06:04:40;;;;;;;;;;;;;;;21.03;51.06;99629.28;3127693;28;20321;-64
2022/06/20 06:06:17;;;;;;;;;;;;;;;21.12;50.57;99633.78;3130044;28;19994;-64
2022/06/20 06:07:52;;;;;;;;;;;;;;;21.20;50.84;99630.41;3128119;28;19978;-66
2022/06/20 06:09:26;;;;;;;;;;;;;;;21.29;50.49;99635.69;3126261;28;19990;-70
2022/06/20 06:11:01;;;;;;;;;;;;;;;21.34;49.85;99630.78;3124279;28;19928;-67
2022/06/20 06:12:36;;;;;;;;;;;;;;;21.42;49.89;99638.06;3127994;28;19924;-69
2022/06/20 06:14:12;;;;;;;;;;;;;;;21.48;49.34;99620.78;3127905;28;19924;-68
2022/06/20 06:17:45;;;;;;;;;;;;;;;21.68;49.89;99627.69;3128034;28;19924;-70
2022/06/20 06:19:23;;;;;;;;;;;;;;;21.76;49.30;99626.94;3128177;28;20388;-70
2022/06/20 06:20:54;;;;;;;;;;;;;;;21.80;48.78;99618.56;3127952;28;19925;-70
2022/06/20 06:22:27;;;;;;;;;;;;;;;21.85;48.36;99623.41;3126216;28;20085;-68
2022/06/20 06:24:01;;;;;;;;;;;;;;;21.93;49.10;99623.53;3128154;28;19925;-68
2022/06/20 06:25:35;;;;;;;;;;;;;;;21.97;48.23;99616.94;3128144;28;19979;-69
2022/06/20 06:27:11;;;;;;;;;;;;;;;22.03;48.14;99619.00;3128272;28;19931;-70
2022/06/20 06:28:43;;;;;;;;;;;;;;;22.08;47.64;99617.75;3128132;28;19976;-69
2022/06/20 06:30:19;;;;;;;;;;;;;;;22.10;47.79;99613.97;3127918;28;20401;-65
2022/06/20 06:31:53;;;;;;;;;;;;;;;22.14;47.51;99611.84;3128062;28;19947;-67
2022/06/20 06:33:27;;;;;;;;;;;;;;;22.19;47.85;99609.63;3127390;28;19924;-66
2022/06/20 06:35:01;;;;;;;;;;;;;;;22.21;47.54;99618.25;3123715;28;19924;-66
2022/06/20 06:36:36;;;;;;;;;;;;;;;22.24;47.76;99605.56;3123982;28;19932;-63
2022/06/20 06:38:12;;;;;;;;;;;;;;;22.28;47.69;99606.09;3125954;28;19925;-64
2022/06/20 06:39:47;;;;;;;;;;;;;;;22.36;47.71;99606.19;3124333;28;20379;-65
2022/06/20 06:41:23;;;;;;;;;;;;;;;22.42;48.03;99610.88;3123811;28;19939;-64
2022/06/20 06:42:56;;;;;;;;;;;;;;;22.49;47.86;99601.31;3124254;28;19986;-63
2022/06/20 06:44:31;;;;;;;;;;;;;;;22.57;47.78;99599.72;3127930;28;19932;-64
2022/06/20 06:46:03;;;;;;;;;;;;;;;22.64;47.61;99603.47;3128043;28;20417;-66
2022/06/20 06:47:38;;;;;;;;;;;;;;;22.72;47.77;99598.22;3127588;28;19924;-67
2022/06/20 06:49:17;;;;;;;;;;;;;;;22.77;47.11;99598.59;3127818;28;19960;-66
2022/06/20 06:50:51;;;;;;;;;;;;;;;22.86;47.06;99597.66;3127644;28;20394;-64
2022/06/20 06:52:26;;;;;;;;;;;;;;;22.93;47.27;99597.91;3127946;28;19932;-63
2022/06/20 06:54:00;;;;;;;;;;;;;;;22.97;46.86;99596.63;3128121;28;19924;-64
2022/06/20 06:55:35;;;;;;;;;;;;;;;22.99;46.47;99591.19;3121620;28;19975;-66
2022/06/20 06:57:12;;;;;;;;;;;;;;;23.06;46.30;99597.53;3127858;28;20675;-65
2022/06/20 06:58:46;;;;;;;;;;;;;;;23.12;46.56;99592.44;3126247;28;19978;-64
2022/06/20 07:00:22;;;;;;;;;;;;;;;23.19;46.37;99586.50;3127959;28;20291;-67
2022/06/20 07:01:56;;;;;;;;;;;;;;;23.22;45.77;99583.53;3126931;28;19936;-68
2022/06/20 07:03:32;;;;;;;;;;;;;;;23.21;45.26;99577.38;3127680;28;19993;-66
2022/06/20 07:05:06;;;;;;;;;;;;;;;23.22;45.84;99580.88;3128290;28;19928;-68
2022/06/20 07:06:41;;;;;;;;;;;;;;;23.26;45.34;99576.94;3127288;28;19925;-68
2022/06/20 07:08:14;;;;;;;;;;;;;;;23.29;45.34;99577.44;3127993;28;19924;-69
2022/06/20 07:09:48;;;;;;;;;;;;;;;23.31;44.74;99577.31;3127998;28;20084;-69
2022/06/20 07:11:21;;;;;;;;;;;;;;;23.29;44.52;99566.81;3127604;28;19928;-70
2022/06/20 07:12:58;;;;;;;;;;;;;;;23.33;44.84;99567.34;3122641;28;20412;-67
2022/06/20 07:14:32;;;;;;;;;;;;;;;23.48;45.20;99572.91;3127306;28;19925;-68
2022/06/20 07:16:06;;;;;;;;;;;;;;;23.59;45.26;99569.97;3125091;28;19929;-69
2022/06/20 07:17:43;;;;;;;;;;;;;;;23.72;44.99;99565.09;3127766;28;19981;-67
2022/06/20 07:19:15;;;;;;;;;;;;;;;23.83;45.30;99562.13;3128156;28;20011;-68
2022/06/20 07:20:47;;;;;;;;;;;;;;;23.95;44.99;99561.84;3128107;28;19946;-69
2022/06/20 07:22:21;;;;;;;;;;;;;;;24.01;44.51;99561.19;3128319;28;20747;-69
2022/06/20 07:23:54;;;;;;;;;;;;;;;24.09;44.19;99563.06;3127397;28;20745;-68
2022/06/20 07:25:30;;;;;;;;;;;;;;;24.18;44.32;99552.28;3127354;28;19928;-68
2022/06/20 07:27:10;;;;;;;;;;;;;;;24.26;44.38;99562.94;3127239;28;20417;-68
2022/06/20 07:28:46;;;;;;;;;;;;;;;24.36;43.93;99554.78;3127661;28;19925;-68
2022/06/20 07:30:20;;;;;;;;;;;;;;;24.45;43.25;99561.81;3128007;28;19924;-69
2022/06/20 07:31:54;;;;;;;;;;;;;;;24.53;43.86;99553.03;3126367;28;20519;-69
2022/06/20 07:33:30;;;;;;;;;;;;;;;24.61;43.01;99552.19;3127866;28;19931;-69
2022/06/20 07:35:06;;;;;;;;;;;;;;;24.68;43.21;99554.03;3127680;28;20364;-70
2022/06/20 07:36:41;;;;;;;;;;;;;;;24.75;42.71;99546.19;3126307;28;19932;-68
2022/06/20 07:38:14;;;;;;;;;;;;;;;24.80;42.77;99549.19;3124670;28;19932;-69
2022/06/20 07:39:50;;;;;;;;;;;;;;;24.87;43.07;99542.19;3126351;28;19932;-69
2022/06/20 07:41:25;;;;;;;;;;;;;;;24.95;43.10;99544.03;3127059;28;19978;-69
2022/06/20 07:43:00;;;;;;;;;;;;;;;25.03;42.85;99538.69;3127916;28;19925;-71
2022/06/20 07:44:36;;;;;;;;;;;;;;;25.09;42.04;99540.69;3127727;28;20377;-70
2022/06/20 07:46:10;;;;;;;;;;;;;;;25.16;42.33;99539.03;3122936;28;20321;-69
2022/06/20 07:47:43;;;;;;;;;;;;;;;25.24;42.24;99535.53;3124110;28;19929;-69
2022/06/20 07:49:18;;;;;;;;;;;;;;;25.34;42.30;99543.31;3127795;28;19936;-69
2022/06/20 07:50:51;;;;;;;;;;;;;;;25.43;42.42;99534.28;3124370;28;19924;-69
2022/06/20 07:52:25;;;;;;;;;;;;;;;25.52;41.58;99527.94;3129883;28;19967;-70
2022/06/20 07:53:59;;;;;;;;;;;;;;;25.62;42.18;99528.56;3127898;28;20591;-69
2022/06/20 07:55:32;;;;;;;;;;;;;;;25.71;42.06;99524.03;3129980;28;19925;-69
2022/06/20 07:57:06;;;;;;;;;;;;;;;25.78;41.83;99524.16;3130128;28;19986;-69
2022/06/20 07:58:40;;;;;;;;;;;;;;;25.86;42.04;99522.31;3129837;28;19963;-70
2022/06/20 08:00:16;;;;;;;;;;;;;;;25.99;42.14;99519.06;3129695;28;19986;-71
2022/06/20 08:01:50;;;;;;;;;;;;;;;26.14;41.49;99518.31;3129782;28;20449;-72
2022/06/20 08:03:25;;;;;;;;;;;;;;;26.26;41.00;99524.91;3126360;28;20653;-71
2022/06/20 08:04:57;;;;;;;;;;;;;;;26.35;40.70;99521.19;3130018;28;19924;-71
2022/06/20 08:06:33;;;;;;;;;;;;;;;26.41;40.28;99517.78;3129641;28;20445;-71
2022/06/20 08:08:10;;;;;;;;;;;;;;;26.46;40.12;99507.41;3129628;28;20002;-68
2022/06/20 08:09:45;;;;;;;;;;;;;;;26.52;39.71;99519.25;3129775;28;19928;-68
2022/06/20 08:13:08;;;;;;;;;;;;;;;26.68;40.15;99511.13;3129616;28;20481;-68
2022/06/20 08:14:42;;;;;;;;;;;;;;;26.70;39.44;99503.75;3129418;28;20031;-67
2022/06/20 08:16:17;;;;;;;;;;;;;;;26.72;39.21;99509.75;3129660;28;19982;-68
2022/06/20 08:17:49;;;;;;;;;;;;;;;26.78;39.49;99514.34;3126994;28;19990;-68
2022/06/20 08:19:21;;;;;;;;;;;;;;;26.87;39.32;99504.44;3128985;28;19925;-67
2022/06/20 08:20:56;;;;;;;;;;;;;;;26.97;38.79;99504.16;3129706;28;19936;-69